sensor_id;sensor_type;location;lat;lon;timestamp;pressure;altitude;pressure_sealevel;temperature;humidity
11542;BME280;5827;49.482;7.716;2023-04-07T00:01:11;98754.63;;;8.29;100.00
11542;BME280;5827;49.482;7.716;2023-04-07T00:03:12;98752.19;;;8.27;100.00
11542;BME280;5827;49.482;7.716;2023-04-07T00:05:14;98751.03;;;8.23;100.00
11542;BME280;5827;49.482;7.716;2023-04-07T00:07:16;98754.06;;;8.27;100.00
11542;BME280;5827;49.482;7.716;2023-04-07T00:09:17;98750.34;;;8.28;100.00
11542;BME280;5827;49.482;7.716;2023-04-07T00:11:20;98756.50;;;8.28;100.00
11542;BME280;5827;49.482;7.716;2023-04-07T00:13:21;98745.13;;;8.21;100.00
11542;BME280;5827;49.482;7.716;2023-04-07T00:15:23;98751.38;;;8.27;100.00
11542;BME280;5827;49.482;7.716;2023-04-07T00:17:24;98743.94;;;8.29;100.00
11542;BME280;5827;49.482;7.716;2023-04-07T00:19:26;98742.13;;;8.29;100.00
11542;BME280;5827;49.482;7.716;2023-04-07T00:21:27;98735.63;;;8.25;100.00
11542;BME280;5827;49.482;7.716;2023-04-07T00:23:29;98730.47;;;8.24;100.00
11542;BME280;5827;49.482;7.716;2023-04-07T00:25:30;98727.47;;;8.20;100.00
11542;BME280;5827;49.482;7.716;2023-04-07T00:27:33;98721.31;;;8.20;100.00
11542;BME280;5827;49.482;7.716;2023-04-07T00:29:35;98728.50;;;8.19;100.00
11542;BME280;5827;49.482;7.716;2023-04-07T00:31:36;98730.34;;;8.19;100.00
11542;BME280;5827;49.482;7.716;2023-04-07T00:33:38;98721.53;;;8.18;100.00
11542;BME280;5827;49.482;7.716;2023-04-07T00:35:39;98722.94;;;8.21;100.00
11542;BME280;5827;49.482;7.716;2023-04-07T00:37:41;98719.25;;;8.22;100.00
11542;BME280;5827;49.482;7.716;2023-04-07T00:39:42;98723.41;;;8.18;100.00
11542;BME280;5827;49.482;7.716;2023-04-07T00:41:44;98721.09;;;8.21;100.00
11542;BME280;5827;49.482;7.716;2023-04-07T00:43:49;98714.72;;;8.22;100.00
11542;BME280;5827;49.482;7.716;2023-04-07T00:45:51;98711.47;;;8.20;100.00
11542;BME280;5827;49.482;7.716;2023-04-07T00:47:52;98710.41;;;8.21;100.00
11542;BME280;5827;49.482;7.716;2023-04-07T00:49:54;98709.13;;;8.24;100.00
11542;BME280;5827;49.482;7.716;2023-04-07T00:51:56;98697.06;;;8.21;100.00
11542;BME280;5827;49.482;7.716;2023-04-07T00:53:58;98693.00;;;8.19;100.00
11542;BME280;5827;49.482;7.716;2023-04-07T00:55:59;98692.88;;;8.13;100.00
11542;BME280;5827;49.482;7.716;2023-04-07T00:58:01;98682.44;;;8.12;100.00
11542;BME280;5827;49.482;7.716;2023-04-07T01:00:06;98685.78;;;8.07;100.00
11542;BME280;5827;49.482;7.716;2023-04-07T01:02:11;98685.19;;;8.05;100.00
11542;BME280;5827;49.482;7.716;2023-04-07T01:04:21;98684.19;;;8.06;100.00
11542;BME280;5827;49.482;7.716;2023-04-07T01:06:30;98677.31;;;7.99;100.00
11542;BME280;5827;49.482;7.716;2023-04-07T01:08:41;98681.47;;;7.95;100.00
11542;BME280;5827;49.482;7.716;2023-04-07T01:10:51;98682.28;;;7.95;100.00
11542;BME280;5827;49.482;7.716;2023-04-07T01:12:56;98670.22;;;7.93;100.00
11542;BME280;5827;49.482;7.716;2023-04-07T01:15:08;98668.44;;;7.86;100.00
11542;BME280;5827;49.482;7.716;2023-04-07T01:17:11;98670.19;;;7.81;100.00
11542;BME280;5827;49.482;7.716;2023-04-07T01:19:32;98668.06;;;7.71;100.00
11542;BME280;5827;49.482;7.716;2023-04-07T01:21:35;98670.13;;;7.69;100.00
11542;BME280;5827;49.482;7.716;2023-04-07T01:24:04;98666.09;;;7.67;100.00
11542;BME280;5827;49.482;7.716;2023-04-07T01:26:17;98667.47;;;7.69;100.00
11542;BME280;5827;49.482;7.716;2023-04-07T01:28:40;98671.41;;;7.67;100.00
11542;BME280;5827;49.482;7.716;2023-04-07T01:30:46;98667.38;;;7.76;100.00
11542;BME280;5827;49.482;7.716;2023-04-07T01:32:52;98666.09;;;7.78;100.00
11542;BME280;5827;49.482;7.716;2023-04-07T01:34:54;98666.25;;;7.83;100.00
11542;BME280;5827;49.482;7.716;2023-04-07T01:36:58;98663.00;;;7.81;100.00
11542;BME280;5827;49.482;7.716;2023-04-07T01:39:01;98666.03;;;7.85;100.00
11542;BME280;5827;49.482;7.716;2023-04-07T01:41:03;98657.56;;;7.88;100.00
11542;BME280;5827;49.482;7.716;2023-04-07T01:43:05;98661.13;;;7.82;100.00
11542;BME280;5827;49.482;7.716;2023-04-07T01:45:08;98651.63;;;7.86;100.00
11542;BME280;5827;49.482;7.716;2023-04-07T01:47:13;98660.31;;;7.81;100.00
11542;BME280;5827;49.482;7.716;2023-04-07T01:49:16;98656.84;;;7.81;100.00
11542;BME280;5827;49.482;7.716;2023-04-07T01:51:19;98658.69;;;7.80;100.00
11542;BME280;5827;49.482;7.716;2023-04-07T01:53:22;98654.97;;;7.81;100.00
11542;BME280;5827;49.482;7.716;2023-04-07T01:55:24;98657.66;;;7.81;100.00
11542;BME280;5827;49.482;7.716;2023-04-07T01:57:26;98652.88;;;7.72;100.00
11542;BME280;5827;49.482;7.716;2023-04-07T01:59:27;98651.56;;;7.62;100.00
11542;BME280;5827;49.482;7.716;2023-04-07T02:01:29;98655.28;;;7.61;100.00
11542;BME280;5827;49.482;7.716;2023-04-07T02:03:38;98653.91;;;7.71;100.00
11542;BME280;5827;49.482;7.716;2023-04-07T02:05:41;98648.66;;;7.64;100.00
11542;BME280;5827;49.482;7.716;2023-04-07T02:07:47;98655.50;;;7.60;100.00
11542;BME280;5827;49.482;7.716;2023-04-07T02:09:50;98649.63;;;7.39;100.00
11542;BME280;5827;49.482;7.716;2023-04-07T02:11:54;98639.16;;;7.56;100.00
11542;BME280;5827;49.482;7.716;2023-04-07T02:14:00;98638.31;;;7.56;100.00
11542;BME280;5827;49.482;7.716;2023-04-07T02:16:03;98635.22;;;7.59;100.00
11542;BME280;5827;49.482;7.716;2023-04-07T02:18:07;98639.00;;;7.51;100.00
11542;BME280;5827;49.482;7.716;2023-04-07T02:20:14;98643.69;;;7.37;100.00
11542;BME280;5827;49.482;7.716;2023-04-07T02:22:17;98637.25;;;7.45;100.00
11542;BME280;5827;49.482;7.716;2023-04-07T02:24:19;98644.31;;;7.39;100.00
11542;BME280;5827;49.482;7.716;2023-04-07T02:26:21;98639.34;;;7.43;100.00
11542;BME280;5827;49.482;7.716;2023-04-07T02:28:22;98639.03;;;7.33;100.00
11542;BME280;5827;49.482;7.716;2023-04-07T02:30:25;98642.31;;;7.35;100.00
11542;BME280;5827;49.482;7.716;2023-04-07T02:32:26;98641.50;;;7.34;100.00
11542;BME280;5827;49.482;7.716;2023-04-07T02:34:28;98644.38;;;7.33;100.00
11542;BME280;5827;49.482;7.716;2023-04-07T02:36:31;98645.88;;;7.29;100.00
11542;BME280;5827;49.482;7.716;2023-04-07T02:38:32;98637.53;;;7.25;100.00
11542;BME280;5827;49.482;7.716;2023-04-07T02:40:34;98636.56;;;7.20;100.00
11542;BME280;5827;49.482;7.716;2023-04-07T02:42:36;98633.75;;;7.14;100.00
11542;BME280;5827;49.482;7.716;2023-04-07T02:44:38;98628.78;;;7.18;100.00
11542;BME280;5827;49.482;7.716;2023-04-07T02:46:39;98624.75;;;7.16;100.00
11542;BME280;5827;49.482;7.716;2023-04-07T02:48:41;98630.28;;;7.14;100.00
11542;BME280;5827;49.482;7.716;2023-04-07T02:50:43;98636.88;;;7.11;100.00
11542;BME280;5827;49.482;7.716;2023-04-07T02:52:46;98628.28;;;7.09;100.00
11542;BME280;5827;49.482;7.716;2023-04-07T02:54:47;98630.59;;;7.06;100.00
11542;BME280;5827;49.482;7.716;2023-04-07T02:56:49;98634.38;;;6.98;100.00
11542;BME280;5827;49.482;7.716;2023-04-07T02:58:50;98636.88;;;6.93;100.00
11542;BME280;5827;49.482;7.716;2023-04-07T03:00:52;98638.75;;;6.93;100.00
11542;BME280;5827;49.482;7.716;2023-04-07T03:02:53;98648.50;;;6.99;100.00
11542;BME280;5827;49.482;7.716;2023-04-07T03:04:55;98642.00;;;6.95;100.00
11542;BME280;5827;49.482;7.716;2023-04-07T03:06:57;98638.75;;;6.93;100.00
11542;BME280;5827;49.482;7.716;2023-04-07T03:09:00;98639.84;;;6.85;100.00
11542;BME280;5827;49.482;7.716;2023-04-07T03:11:01;98644.59;;;7.01;100.00
11542;BME280;5827;49.482;7.716;2023-04-07T03:13:03;98640.41;;;7.05;100.00
11542;BME280;5827;49.482;7.716;2023-04-07T03:15:06;98639.16;;;7.08;100.00
11542;BME280;5827;49.482;7.716;2023-04-07T03:17:08;98641.75;;;7.14;100.00
11542;BME280;5827;49.482;7.716;2023-04-07T03:19:09;98641.53;;;7.16;100.00
11542;BME280;5827;49.482;7.716;2023-04-07T03:21:11;98637.09;;;7.10;100.00
11542;BME280;5827;49.482;7.716;2023-04-07T03:23:13;98635.84;;;7.12;100.00
11542;BME280;5827;49.482;7.716;2023-04-07T03:25:16;98632.88;;;7.21;100.00
11542;BME280;5827;49.482;7.716;2023-04-07T03:27:27;98633.56;;;7.28;100.00
11542;BME280;5827;49.482;7.716;2023-04-07T03:29:28;98633.00;;;7.26;100.00
11542;BME280;5827;49.482;7.716;2023-04-07T03:31:30;98626.41;;;7.28;100.00
11542;BME280;5827;49.482;7.716;2023-04-07T03:33:31;98620.50;;;7.26;100.00
11542;BME280;5827;49.482;7.716;2023-04-07T03:35:33;98621.84;;;7.17;100.00
11542;BME280;5827;49.482;7.716;2023-04-07T03:37:34;98616.59;;;7.10;100.00
11542;BME280;5827;49.482;7.716;2023-04-07T03:39:36;98611.59;;;7.02;100.00
11542;BME280;5827;49.482;7.716;2023-04-07T03:41:39;98609.13;;;6.82;100.00
11542;BME280;5827;49.482;7.716;2023-04-07T03:43:41;98605.59;;;6.88;100.00
11542;BME280;5827;49.482;7.716;2023-04-07T03:45:42;98608.25;;;6.88;100.00
11542;BME280;5827;49.482;7.716;2023-04-07T03:47:44;98602.19;;;6.81;100.00
11542;BME280;5827;49.482;7.716;2023-04-07T03:49:45;98607.22;;;6.71;100.00
11542;BME280;5827;49.482;7.716;2023-04-07T03:51:47;98611.47;;;6.60;100.00
11542;BME280;5827;49.482;7.716;2023-04-07T03:53:48;98607.59;;;6.56;100.00
11542;BME280;5827;49.482;7.716;2023-04-07T03:55:50;98613.22;;;6.48;100.00
11542;BME280;5827;49.482;7.716;2023-04-07T03:57:53;98611.44;;;6.42;100.00
11542;BME280;5827;49.482;7.716;2023-04-07T03:59:55;98612.31;;;6.36;100.00
11542;BME280;5827;49.482;7.716;2023-04-07T04:01:57;98611.34;;;6.30;100.00
11542;BME280;5827;49.482;7.716;2023-04-07T04:03:58;98611.03;;;6.20;100.00
11542;BME280;5827;49.482;7.716;2023-04-07T04:06:00;98619.81;;;6.21;100.00
11542;BME280;5827;49.482;7.716;2023-04-07T04:08:02;98615.53;;;6.20;100.00
11542;BME280;5827;49.482;7.716;2023-04-07T04:10:04;98620.06;;;6.19;100.00
11542;BME280;5827;49.482;7.716;2023-04-07T04:12:06;98617.59;;;6.18;100.00
11542;BME280;5827;49.482;7.716;2023-04-07T04:14:09;98616.84;;;6.10;100.00
11542;BME280;5827;49.482;7.716;2023-04-07T04:16:10;98614.03;;;6.05;100.00
11542;BME280;5827;49.482;7.716;2023-04-07T04:18:12;98608.59;;;5.94;100.00
11542;BME280;5827;49.482;7.716;2023-04-07T04:20:13;98611.03;;;5.95;100.00
11542;BME280;5827;49.482;7.716;2023-04-07T04:22:15;98620.44;;;5.98;100.00
11542;BME280;5827;49.482;7.716;2023-04-07T04:24:17;98620.44;;;5.98;100.00
11542;BME280;5827;49.482;7.716;2023-04-07T04:26:18;98629.84;;;6.00;100.00
11542;BME280;5827;49.482;7.716;2023-04-07T04:28:20;98636.63;;;5.90;100.00
11542;BME280;5827;49.482;7.716;2023-04-07T04:30:23;98642.03;;;5.76;100.00
11542;BME280;5827;49.482;7.716;2023-04-07T04:32:24;98630.09;;;5.60;100.00
11542;BME280;5827;49.482;7.716;2023-04-07T04:34:26;98634.59;;;5.60;100.00
11542;BME280;5827;49.482;7.716;2023-04-07T04:36:27;98634.34;;;5.68;100.00
11542;BME280;5827;49.482;7.716;2023-04-07T04:38:29;98638.16;;;5.72;100.00
11542;BME280;5827;49.482;7.716;2023-04-07T04:40:32;98637.50;;;5.77;100.00
11542;BME280;5827;49.482;7.716;2023-04-07T04:42:34;98633.41;;;5.81;100.00
11542;BME280;5827;49.482;7.716;2023-04-07T04:44:35;98631.56;;;5.81;100.00
11542;BME280;5827;49.482;7.716;2023-04-07T04:46:38;98640.56;;;5.80;100.00
11542;BME280;5827;49.482;7.716;2023-04-07T04:48:40;98634.50;;;5.73;100.00
11542;BME280;5827;49.482;7.716;2023-04-07T04:50:41;98632.00;;;5.78;100.00
11542;BME280;5827;49.482;7.716;2023-04-07T04:52:43;98630.00;;;5.74;100.00
11542;BME280;5827;49.482;7.716;2023-04-07T04:54:45;98625.41;;;5.88;100.00
11542;BME280;5827;49.482;7.716;2023-04-07T04:56:46;98632.75;;;5.92;100.00
11542;BME280;5827;49.482;7.716;2023-04-07T04:58:48;98635.41;;;5.92;100.00
11542;BME280;5827;49.482;7.716;2023-04-07T05:00:52;98633.22;;;5.82;100.00
11542;BME280;5827;49.482;7.716;2023-04-07T05:02:58;98639.91;;;5.92;100.00
11542;BME280;5827;49.482;7.716;2023-04-07T05:05:00;98638.22;;;5.97;100.00
11542;BME280;5827;49.482;7.716;2023-04-07T05:07:02;98640.16;;;6.08;100.00
11542;BME280;5827;49.482;7.716;2023-04-07T05:09:03;98642.63;;;6.10;100.00
11542;BME280;5827;49.482;7.716;2023-04-07T05:11:05;98644.84;;;6.13;100.00
11542;BME280;5827;49.482;7.716;2023-04-07T05:13:06;98645.88;;;6.12;100.00
11542;BME280;5827;49.482;7.716;2023-04-07T05:15:09;98641.38;;;6.13;100.00
11542;BME280;5827;49.482;7.716;2023-04-07T05:17:10;98650.81;;;6.08;100.00
11542;BME280;5827;49.482;7.716;2023-04-07T05:19:13;98635.63;;;6.16;100.00
11542;BME280;5827;49.482;7.716;2023-04-07T05:21:15;98631.13;;;6.16;100.00
11542;BME280;5827;49.482;7.716;2023-04-07T05:23:19;98625.28;;;6.26;100.00
11542;BME280;5827;49.482;7.716;2023-04-07T05:25:20;98622.22;;;6.29;100.00
11542;BME280;5827;49.482;7.716;2023-04-07T05:27:22;98622.38;;;6.34;100.00
11542;BME280;5827;49.482;7.716;2023-04-07T05:29:23;98622.94;;;6.36;100.00
11542;BME280;5827;49.482;7.716;2023-04-07T05:31:25;98613.72;;;6.39;100.00
11542;BME280;5827;49.482;7.716;2023-04-07T05:33:26;98621.31;;;6.35;100.00
11542;BME280;5827;49.482;7.716;2023-04-07T05:35:29;98615.13;;;6.41;100.00
11542;BME280;5827;49.482;7.716;2023-04-07T05:37:31;98617.34;;;6.44;100.00
11542;BME280;5827;49.482;7.716;2023-04-07T05:39:32;98620.97;;;6.50;100.00
11542;BME280;5827;49.482;7.716;2023-04-07T05:41:34;98630.59;;;6.51;100.00
11542;BME280;5827;49.482;7.716;2023-04-07T05:43:36;98630.28;;;6.59;100.00
11542;BME280;5827;49.482;7.716;2023-04-07T05:45:38;98625.34;;;6.62;100.00
11542;BME280;5827;49.482;7.716;2023-04-07T05:47:39;98623.72;;;6.61;100.00
11542;BME280;5827;49.482;7.716;2023-04-07T05:49:41;98620.31;;;6.73;100.00
11542;BME280;5827;49.482;7.716;2023-04-07T05:51:47;98626.97;;;6.82;100.00
11542;BME280;5827;49.482;7.716;2023-04-07T05:53:49;98623.06;;;6.84;100.00
11542;BME280;5827;49.482;7.716;2023-04-07T05:55:51;98624.69;;;6.85;100.00
11542;BME280;5827;49.482;7.716;2023-04-07T05:57:52;98632.16;;;6.95;100.00
11542;BME280;5827;49.482;7.716;2023-04-07T05:59:54;98639.41;;;6.88;100.00
11542;BME280;5827;49.482;7.716;2023-04-07T06:01:55;98639.03;;;6.66;100.00
11542;BME280;5827;49.482;7.716;2023-04-07T06:03:57;98636.91;;;6.75;100.00
11542;BME280;5827;49.482;7.716;2023-04-07T06:05:59;98640.22;;;6.88;100.00
11542;BME280;5827;49.482;7.716;2023-04-07T06:08:01;98643.94;;;6.87;100.00
11542;BME280;5827;49.482;7.716;2023-04-07T06:10:04;98642.41;;;6.92;100.00
11542;BME280;5827;49.482;7.716;2023-04-07T06:12:08;98645.97;;;7.04;100.00
11542;BME280;5827;49.482;7.716;2023-04-07T06:14:12;98640.13;;;6.95;100.00
11542;BME280;5827;49.482;7.716;2023-04-07T06:16:14;98647.28;;;7.13;100.00
11542;BME280;5827;49.482;7.716;2023-04-07T06:18:15;98651.00;;;7.12;100.00
11542;BME280;5827;49.482;7.716;2023-04-07T06:20:17;98655.81;;;7.22;100.00
11542;BME280;5827;49.482;7.716;2023-04-07T06:22:19;98655.50;;;7.30;100.00
11542;BME280;5827;49.482;7.716;2023-04-07T06:24:22;98655.72;;;7.28;100.00
11542;BME280;5827;49.482;7.716;2023-04-07T06:26:24;98654.22;;;7.32;100.00
11542;BME280;5827;49.482;7.716;2023-04-07T06:28:26;98663.19;;;7.38;100.00
11542;BME280;5827;49.482;7.716;2023-04-07T06:30:28;98657.38;;;7.41;100.00
11542;BME280;5827;49.482;7.716;2023-04-07T06:32:29;98671.00;;;7.51;100.00
11542;BME280;5827;49.482;7.716;2023-04-07T06:34:31;98662.69;;;7.59;100.00
11542;BME280;5827;49.482;7.716;2023-04-07T06:36:32;98669.56;;;7.67;100.00
11542;BME280;5827;49.482;7.716;2023-04-07T06:38:34;98663.44;;;7.78;100.00
11542;BME280;5827;49.482;7.716;2023-04-07T06:40:36;98659.50;;;7.81;100.00
11542;BME280;5827;49.482;7.716;2023-04-07T06:42:38;98662.31;;;7.86;100.00
11542;BME280;5827;49.482;7.716;2023-04-07T06:44:40;98665.91;;;7.92;100.00
11542;BME280;5827;49.482;7.716;2023-04-07T06:46:41;98663.84;;;7.94;100.00
11542;BME280;5827;49.482;7.716;2023-04-07T06:48:43;98667.19;;;7.89;100.00
11542;BME280;5827;49.482;7.716;2023-04-07T06:50:45;98665.34;;;8.01;100.00
11542;BME280;5827;49.482;7.716;2023-04-07T06:52:47;98659.81;;;8.03;100.00
11542;BME280;5827;49.482;7.716;2023-04-07T06:54:49;98652.69;;;7.97;100.00
11542;BME280;5827;49.482;7.716;2023-04-07T06:56:52;98656.56;;;8.12;100.00
11542;BME280;5827;49.482;7.716;2023-04-07T06:58:56;98657.16;;;8.26;100.00
11542;BME280;5827;49.482;7.716;2023-04-07T07:00:57;98657.19;;;8.38;100.00
11542;BME280;5827;49.482;7.716;2023-04-07T07:02:59;98659.69;;;8.33;100.00
11542;BME280;5827;49.482;7.716;2023-04-07T07:05:00;98661.25;;;8.40;100.00
11542;BME280;5827;49.482;7.716;2023-04-07T07:07:03;98657.66;;;8.58;100.00
11542;BME280;5827;49.482;7.716;2023-04-07T07:09:05;98663.59;;;8.49;100.00
11542;BME280;5827;49.482;7.716;2023-04-07T07:11:06;98665.78;;;8.63;100.00
11542;BME280;5827;49.482;7.716;2023-04-07T07:13:09;98670.66;;;8.78;100.00
11542;BME280;5827;49.482;7.716;2023-04-07T07:15:10;98670.66;;;8.67;100.00
11542;BME280;5827;49.482;7.716;2023-04-07T07:17:13;98671.94;;;8.76;100.00
11542;BME280;5827;49.482;7.716;2023-04-07T07:19:14;98672.47;;;9.01;100.00
11542;BME280;5827;49.482;7.716;2023-04-07T07:21:16;98669.19;;;9.23;100.00
11542;BME280;5827;49.482;7.716;2023-04-07T07:23:18;98674.25;;;9.36;100.00
11542;BME280;5827;49.482;7.716;2023-04-07T07:25:20;98673.63;;;9.46;100.00
11542;BME280;5827;49.482;7.716;2023-04-07T07:27:21;98677.47;;;9.50;100.00
11542;BME280;5827;49.482;7.716;2023-04-07T07:29:24;98672.63;;;9.63;100.00
11542;BME280;5827;49.482;7.716;2023-04-07T07:31:26;98674.44;;;9.75;100.00
11542;BME280;5827;49.482;7.716;2023-04-07T07:33:27;98681.66;;;9.74;100.00
11542;BME280;5827;49.482;7.716;2023-04-07T07:35:29;98678.84;;;9.81;100.00
11542;BME280;5827;49.482;7.716;2023-04-07T07:37:31;98681.09;;;9.89;100.00
11542;BME280;5827;49.482;7.716;2023-04-07T07:39:33;98691.03;;;10.05;100.00
11542;BME280;5827;49.482;7.716;2023-04-07T07:41:35;98679.75;;;10.03;100.00
11542;BME280;5827;49.482;7.716;2023-04-07T07:43:36;98680.94;;;10.24;100.00
11542;BME280;5827;49.482;7.716;2023-04-07T07:45:39;98690.75;;;10.52;100.00
11542;BME280;5827;49.482;7.716;2023-04-07T07:47:41;98690.41;;;10.65;100.00
11542;BME280;5827;49.482;7.716;2023-04-07T07:49:42;98695.44;;;10.79;100.00
11542;BME280;5827;49.482;7.716;2023-04-07T07:51:44;98696.91;;;11.08;100.00
11542;BME280;5827;49.482;7.716;2023-04-07T07:53:46;98700.41;;;11.53;100.00
11542;BME280;5827;49.482;7.716;2023-04-07T07:55:47;98704.94;;;11.74;100.00
11542;BME280;5827;49.482;7.716;2023-04-07T07:57:49;98712.19;;;11.74;100.00
11542;BME280;5827;49.482;7.716;2023-04-07T07:59:51;98711.88;;;11.70;100.00
11542;BME280;5827;49.482;7.716;2023-04-07T08:01:53;98710.59;;;11.51;100.00
11542;BME280;5827;49.482;7.716;2023-04-07T08:03:55;98701.81;;;10.94;100.00
11542;BME280;5827;49.482;7.716;2023-04-07T08:05:56;98704.53;;;11.16;100.00
11542;BME280;5827;49.482;7.716;2023-04-07T08:07:58;98705.59;;;11.15;100.00
11542;BME280;5827;49.482;7.716;2023-04-07T08:09:59;98708.06;;;11.22;100.00
11542;BME280;5827;49.482;7.716;2023-04-07T08:12:01;98716.88;;;11.39;100.00
11542;BME280;5827;49.482;7.716;2023-04-07T08:14:02;98715.84;;;11.18;100.00
11542;BME280;5827;49.482;7.716;2023-04-07T08:16:05;98716.00;;;11.12;100.00
11542;BME280;5827;49.482;7.716;2023-04-07T08:18:07;98714.69;;;11.14;100.00
11542;BME280;5827;49.482;7.716;2023-04-07T08:20:09;98715.53;;;10.98;100.00
11542;BME280;5827;49.482;7.716;2023-04-07T08:22:11;98715.88;;;10.85;100.00
11542;BME280;5827;49.482;7.716;2023-04-07T08:24:13;98718.28;;;10.48;100.00
11542;BME280;5827;49.482;7.716;2023-04-07T08:26:14;98714.88;;;10.69;100.00
11542;BME280;5827;49.482;7.716;2023-04-07T08:28:16;98717.28;;;10.71;100.00
11542;BME280;5827;49.482;7.716;2023-04-07T08:30:17;98713.50;;;10.50;100.00
11542;BME280;5827;49.482;7.716;2023-04-07T08:32:20;98712.44;;;10.51;100.00
11542;BME280;5827;49.482;7.716;2023-04-07T08:34:23;98717.88;;;10.56;100.00
11542;BME280;5827;49.482;7.716;2023-04-07T08:36:27;98726.88;;;10.66;100.00
11542;BME280;5827;49.482;7.716;2023-04-07T08:38:29;98723.50;;;10.93;100.00
11542;BME280;5827;49.482;7.716;2023-04-07T08:40:31;98727.75;;;10.89;100.00
11542;BME280;5827;49.482;7.716;2023-04-07T08:42:34;98733.03;;;10.84;100.00
11542;BME280;5827;49.482;7.716;2023-04-07T08:44:37;98738.72;;;10.87;100.00
11542;BME280;5827;49.482;7.716;2023-04-07T08:46:38;98735.22;;;10.53;100.00
11542;BME280;5827;49.482;7.716;2023-04-07T08:48:43;98734.50;;;10.41;100.00
11542;BME280;5827;49.482;7.716;2023-04-07T08:50:48;98737.44;;;10.56;100.00
11542;BME280;5827;49.482;7.716;2023-04-07T08:52:53;98738.78;;;10.25;100.00
11542;BME280;5827;49.482;7.716;2023-04-07T08:54:55;98745.94;;;10.08;100.00
11542;BME280;5827;49.482;7.716;2023-04-07T08:56:58;98733.31;;;10.20;100.00
11542;BME280;5827;49.482;7.716;2023-04-07T08:59:01;98736.63;;;10.56;100.00
11542;BME280;5827;49.482;7.716;2023-04-07T09:01:04;98736.38;;;10.57;100.00
11542;BME280;5827;49.482;7.716;2023-04-07T09:03:07;98739.59;;;10.76;100.00
11542;BME280;5827;49.482;7.716;2023-04-07T09:05:09;98748.63;;;10.87;100.00
11542;BME280;5827;49.482;7.716;2023-04-07T09:07:12;98748.63;;;10.70;100.00
11542;BME280;5827;49.482;7.716;2023-04-07T09:09:13;98749.69;;;10.69;100.00
11542;BME280;5827;49.482;7.716;2023-04-07T09:11:15;98751.78;;;10.84;100.00
11542;BME280;5827;49.482;7.716;2023-04-07T09:13:16;98744.75;;;10.78;100.00
11542;BME280;5827;49.482;7.716;2023-04-07T09:15:18;98748.47;;;10.77;100.00
11542;BME280;5827;49.482;7.716;2023-04-07T09:17:20;98756.59;;;10.82;100.00
11542;BME280;5827;49.482;7.716;2023-04-07T09:19:23;98752.94;;;10.71;100.00
11542;BME280;5827;49.482;7.716;2023-04-07T09:21:25;98754.56;;;10.72;100.00
11542;BME280;5827;49.482;7.716;2023-04-07T09:23:30;98757.72;;;10.52;100.00
11542;BME280;5827;49.482;7.716;2023-04-07T09:25:32;98752.38;;;10.69;100.00
11542;BME280;5827;49.482;7.716;2023-04-07T09:27:33;98760.00;;;10.43;100.00
11542;BME280;5827;49.482;7.716;2023-04-07T09:29:35;98757.94;;;10.34;100.00
11542;BME280;5827;49.482;7.716;2023-04-07T09:31:44;98755.75;;;10.31;100.00
11542;BME280;5827;49.482;7.716;2023-04-07T09:33:46;98760.72;;;10.89;100.00
11542;BME280;5827;49.482;7.716;2023-04-07T09:35:50;98764.84;;;10.97;100.00
11542;BME280;5827;49.482;7.716;2023-04-07T09:38:03;98765.00;;;11.07;100.00
11542;BME280;5827;49.482;7.716;2023-04-07T09:40:09;98768.38;;;11.36;100.00
11542;BME280;5827;49.482;7.716;2023-04-07T09:42:11;98768.44;;;11.41;100.00
11542;BME280;5827;49.482;7.716;2023-04-07T09:44:13;98775.91;;;11.39;100.00
11542;BME280;5827;49.482;7.716;2023-04-07T09:46:15;98774.09;;;11.23;100.00
11542;BME280;5827;49.482;7.716;2023-04-07T09:48:19;98776.91;;;11.33;100.00
11542;BME280;5827;49.482;7.716;2023-04-07T09:50:31;98773.00;;;11.41;100.00
11542;BME280;5827;49.482;7.716;2023-04-07T09:52:48;98773.22;;;11.39;100.00
11542;BME280;5827;49.482;7.716;2023-04-07T09:54:51;98773.97;;;11.35;100.00
11542;BME280;5827;49.482;7.716;2023-04-07T09:56:56;98776.53;;;11.47;100.00
11542;BME280;5827;49.482;7.716;2023-04-07T09:58:59;98775.44;;;11.64;100.00
11542;BME280;5827;49.482;7.716;2023-04-07T10:01:02;98772.75;;;11.64;100.00
11542;BME280;5827;49.482;7.716;2023-04-07T10:03:04;98772.44;;;11.61;100.00
11542;BME280;5827;49.482;7.716;2023-04-07T10:05:06;98774.53;;;11.59;100.00
11542;BME280;5827;49.482;7.716;2023-04-07T10:07:09;98775.66;;;11.63;100.00
11542;BME280;5827;49.482;7.716;2023-04-07T10:09:10;98778.59;;;11.61;100.00
11542;BME280;5827;49.482;7.716;2023-04-07T10:11:12;98779.16;;;11.41;100.00
11542;BME280;5827;49.482;7.716;2023-04-07T10:13:15;98778.47;;;11.51;100.00
11542;BME280;5827;49.482;7.716;2023-04-07T10:15:16;98773.91;;;11.52;100.00
11542;BME280;5827;49.482;7.716;2023-04-07T10:17:20;98777.59;;;11.45;100.00
11542;BME280;5827;49.482;7.716;2023-04-07T10:19:23;98779.25;;;11.30;100.00
11542;BME280;5827;49.482;7.716;2023-04-07T10:21:26;98780.88;;;11.31;100.00
11542;BME280;5827;49.482;7.716;2023-04-07T10:23:33;98784.53;;;11.41;100.00
11542;BME280;5827;49.482;7.716;2023-04-07T10:25:38;98788.16;;;11.52;100.00
11542;BME280;5827;49.482;7.716;2023-04-07T10:27:43;98792.75;;;11.57;100.00
11542;BME280;5827;49.482;7.716;2023-04-07T10:29:51;98783.03;;;11.51;100.00
11542;BME280;5827;49.482;7.716;2023-04-07T10:31:53;98787.66;;;11.16;100.00
11542;BME280;5827;49.482;7.716;2023-04-07T10:33:54;98785.47;;;11.13;100.00
11542;BME280;5827;49.482;7.716;2023-04-07T10:36:04;98776.97;;;10.83;100.00
11542;BME280;5827;49.482;7.716;2023-04-07T10:38:11;98771.63;;;10.66;100.00
11542;BME280;5827;49.482;7.716;2023-04-07T10:40:27;98778.19;;;10.92;100.00
11542;BME280;5827;49.482;7.716;2023-04-07T10:42:43;98777.66;;;11.12;100.00
11542;BME280;5827;49.482;7.716;2023-04-07T10:44:46;98789.47;;;11.11;100.00
11542;BME280;5827;49.482;7.716;2023-04-07T10:47:04;98783.88;;;10.96;100.00
11542;BME280;5827;49.482;7.716;2023-04-07T10:49:07;98779.44;;;10.67;100.00
11542;BME280;5827;49.482;7.716;2023-04-07T10:51:15;98790.22;;;10.73;100.00
11542;BME280;5827;49.482;7.716;2023-04-07T10:53:18;98792.88;;;11.06;100.00
11542;BME280;5827;49.482;7.716;2023-04-07T10:55:43;98788.50;;;11.00;100.00
11542;BME280;5827;49.482;7.716;2023-04-07T10:58:11;98791.81;;;11.07;100.00